createdAt,value
2023-05-05T00:01:22.098Z,95384.80
2023-05-05T00:03:49.135Z,95382.20
2023-05-05T00:06:16.152Z,95378.60
2023-05-05T00:08:42.824Z,95375.00
2023-05-05T00:11:09.573Z,95374.00
2023-05-05T00:13:36.320Z,95367.40
2023-05-05T00:16:03.156Z,95368.60
2023-05-05T00:18:30.152Z,95367.60
2023-05-05T00:20:56.995Z,95366.60
2023-05-05T00:23:23.607Z,95366.60
2023-05-05T00:25:50.378Z,95369.00
2023-05-05T00:28:17.126Z,95370.20
2023-05-05T00:30:43.890Z,95363.40
2023-05-05T00:33:11.118Z,95368.20
2023-05-05T00:35:37.782Z,95365.40
2023-05-05T00:38:05.150Z,95371.00
2023-05-05T00:40:31.909Z,95368.60
2023-05-05T00:42:59.664Z,95367.00
2023-05-05T00:45:26.453Z,95368.60
2023-05-05T00:47:57.375Z,95370.00
2023-05-05T00:50:27.323Z,95368.40
2023-05-05T00:53:01.721Z,95367.60
2023-05-05T00:55:30.113Z,95364.40
2023-05-05T00:58:01.610Z,95361.60
2023-05-05T01:00:28.864Z,95361.40
2023-05-05T01:02:55.870Z,95356.80
2023-05-05T01:05:24.694Z,95353.40
2023-05-05T01:08:08.100Z,95353.80
2023-05-05T01:10:38.757Z,95350.00
2023-05-05T01:13:26.894Z,95347.00
2023-05-05T01:16:19.529Z,95344.80
2023-05-05T01:19:01.083Z,95344.20
2023-05-05T01:21:41.230Z,95348.20
2023-05-05T01:24:39.176Z,95347.80
2023-05-05T01:27:45.199Z,95350.00
2023-05-05T01:30:46.943Z,95350.60
2023-05-05T01:33:20.688Z,95347.20
2023-05-05T01:35:53.447Z,95344.80
2023-05-05T01:38:26.754Z,95345.00
2023-05-05T01:41:24.243Z,95345.80
2023-05-05T01:43:52.903Z,95347.20
2023-05-05T01:46:21.898Z,95348.20
2023-05-05T01:48:49.889Z,95344.80
2023-05-05T01:51:19.480Z,95347.20
2023-05-05T01:53:47.349Z,95352.40
2023-05-05T01:56:15.929Z,95350.20
2023-05-05T01:58:46.574Z,95349.40
2023-05-05T02:01:14.488Z,95350.80
2023-05-05T02:03:42.481Z,95350.60
2023-05-05T02:06:11.200Z,95350.20
2023-05-05T02:08:39.572Z,95352.80
2023-05-05T02:11:10.049Z,95352.20
2023-05-05T02:13:39.480Z,95354.80
2023-05-05T02:16:07.087Z,95354.00
2023-05-05T02:18:38.738Z,95354.60
2023-05-05T02:21:05.525Z,95356.60
2023-05-05T02:23:32.315Z,95357.60
2023-05-05T02:26:07.815Z,95354.00
2023-05-05T02:29:15.154Z,95356.20
2023-05-05T02:31:49.295Z,95360.20
2023-05-05T02:34:24.660Z,95362.00
2023-05-05T02:36:57.565Z,95359.20
2023-05-05T02:39:34.523Z,95354.40
2023-05-05T02:42:04.067Z,95355.40
2023-05-05T02:44:33.170Z,95356.80
2023-05-05T02:47:00.085Z,95359.20
2023-05-05T02:49:27.263Z,95363.40
2023-05-05T02:51:58.081Z,95363.80
2023-05-05T02:54:27.159Z,95363.40
2023-05-05T02:56:56.810Z,95357.20
2023-05-05T02:59:47.499Z,95360.20
2023-05-05T03:02:34.935Z,95359.80
2023-05-05T03:05:14.770Z,95355.60
2023-05-05T03:08:04.798Z,95356.40
2023-05-05T03:10:54.633Z,95363.40
2023-05-05T03:13:24.376Z,95360.80
2023-05-05T03:15:52.586Z,95361.40
2023-05-05T03:18:25.045Z,95362.20
2023-05-05T03:20:57.338Z,95363.20
2023-05-05T03:23:24.066Z,95361.80
2023-05-05T03:25:55.022Z,95364.00
2023-05-05T03:28:48.158Z,95360.60
2023-05-05T03:31:21.694Z,95362.80
2023-05-05T03:33:51.793Z,95360.40
2023-05-05T03:36:20.254Z,95356.60
2023-05-05T03:38:47.013Z,95358.60
2023-05-05T03:41:14.091Z,95357.20
2023-05-05T03:43:41.338Z,95357.20
2023-05-05T03:46:10.426Z,95357.20
2023-05-05T03:48:37.401Z,95362.60
2023-05-05T03:51:04.053Z,95365.60
2023-05-05T03:53:31.320Z,95368.60
2023-05-05T03:56:00.006Z,95371.40
2023-05-05T03:58:27.158Z,95370.60
2023-05-05T04:00:53.731Z,95366.80
2023-05-05T04:03:20.733Z,95366.20
2023-05-05T04:05:48.262Z,95365.40
2023-05-05T04:08:14.924Z,95365.80
2023-05-05T04:10:41.563Z,95369.20
2023-05-05T04:13:08.758Z,95374.00
2023-05-05T04:15:35.624Z,95369.60
2023-05-05T04:18:02.365Z,95370.20
2023-05-05T04:20:29.042Z,95367.40
2023-05-05T04:22:55.763Z,95367.60
2023-05-05T04:25:22.762Z,95368.40
2023-05-05T04:27:49.417Z,95372.40
2023-05-05T04:30:16.028Z,95370.20
2023-05-05T04:32:42.754Z,95371.20
2023-05-05T04:35:09.932Z,95374.00
2023-05-05T04:37:36.624Z,95377.80
2023-05-05T04:40:04.654Z,95386.80
2023-05-05T04:42:31.610Z,95383.40
2023-05-05T04:44:58.253Z,95379.60
2023-05-05T04:47:24.903Z,95380.40
2023-05-05T04:49:51.578Z,95380.80
2023-05-05T04:52:18.262Z,95376.80
2023-05-05T04:54:44.864Z,95375.20
2023-05-05T04:57:11.427Z,95379.60
2023-05-05T04:59:38.218Z,95378.80
2023-05-05T05:02:04.863Z,95380.40
2023-05-05T05:04:31.570Z,95380.20
2023-05-05T05:06:59.375Z,95382.00
2023-05-05T05:09:26.714Z,95385.40
2023-05-05T05:11:53.373Z,95386.60
2023-05-05T05:14:21.177Z,95384.20
2023-05-05T05:16:52.204Z,95385.40
2023-05-05T05:19:19.445Z,95391.20
2023-05-05T05:21:46.121Z,95390.00
2023-05-05T05:24:12.824Z,95395.80
2023-05-05T05:26:39.640Z,95392.60
2023-05-05T05:29:06.655Z,95391.20
2023-05-05T05:31:34.419Z,95387.40
2023-05-05T05:34:01.560Z,95392.00
2023-05-05T05:36:28.302Z,95394.00
2023-05-05T05:38:55.027Z,95395.80
2023-05-05T05:41:21.707Z,95390.20
2023-05-05T05:43:48.558Z,95388.40
2023-05-05T05:46:15.572Z,95391.20
2023-05-05T05:48:43.304Z,95391.40
2023-05-05T05:51:10.079Z,95389.20
2023-05-05T05:53:37.015Z,95394.20
2023-05-05T05:56:04.149Z,95395.00
2023-05-05T05:58:31.401Z,95392.60
2023-05-05T06:00:59.866Z,95397.20
2023-05-05T06:03:27.210Z,95389.40
2023-05-05T06:05:53.974Z,95396.00
2023-05-05T06:08:21.681Z,95396.60
2023-05-05T06:10:51.985Z,95395.40
2023-05-05T06:13:19.891Z,95398.00
2023-05-05T06:15:48.983Z,95404.40
2023-05-05T06:18:15.733Z,95403.00
2023-05-05T06:20:43.604Z,95405.40
2023-05-05T06:23:11.012Z,95403.40
2023-05-05T06:25:40.887Z,95401.00
2023-05-05T06:28:07.588Z,95398.20
2023-05-05T06:30:35.561Z,95395.40
2023-05-05T06:33:02.204Z,95396.40
2023-05-05T06:35:30.410Z,95396.80
2023-05-05T06:37:56.951Z,95390.80
2023-05-05T06:40:23.827Z,95399.40
2023-05-05T06:42:50.540Z,95390.00
2023-05-05T06:45:21.452Z,95391.40
2023-05-05T06:47:49.675Z,95390.80
2023-05-05T06:50:16.516Z,95396.00
2023-05-05T06:52:43.235Z,95398.80
2023-05-05T06:55:10.110Z,95394.40
2023-05-05T06:57:36.693Z,95395.20
2023-05-05T07:00:09.765Z,95387.80
2023-05-05T07:02:37.539Z,95387.20
2023-05-05T07:05:05.034Z,95385.80
2023-05-05T07:07:32.528Z,95390.80
2023-05-05T07:09:59.239Z,95383.00
2023-05-05T07:12:26.063Z,95387.20
2023-05-05T07:14:52.630Z,95387.80
2023-05-05T07:17:19.171Z,95394.60
2023-05-05T07:19:45.864Z,95396.80
2023-05-05T07:22:12.485Z,95393.00
2023-05-05T07:24:39.056Z,95400.00
2023-05-05T07:27:06.953Z,95395.20
2023-05-05T07:29:33.596Z,95398.20
2023-05-05T07:32:00.307Z,95402.40
2023-05-05T07:34:28.020Z,95397.40
2023-05-05T07:36:56.545Z,95397.60
2023-05-05T07:39:23.218Z,95403.00
2023-05-05T07:41:50.012Z,95397.80
2023-05-05T07:44:16.673Z,95400.20
2023-05-05T07:46:43.256Z,95397.40
2023-05-05T07:49:09.920Z,95394.80
2023-05-05T07:51:36.887Z,95388.80
2023-05-05T07:54:03.934Z,95388.40
2023-05-05T07:56:30.743Z,95386.80
2023-05-05T07:58:57.430Z,95379.80
2023-05-05T08:01:24.080Z,95382.80
2023-05-05T08:03:50.886Z,95383.40
2023-05-05T08:06:22.272Z,95384.40
2023-05-05T08:08:49.662Z,95383.40
2023-05-05T08:11:17.102Z,95383.00
2023-05-05T08:13:44.709Z,95381.40
2023-05-05T08:16:12.806Z,95380.80
2023-05-05T08:18:39.629Z,95384.60
2023-05-05T08:21:08.319Z,95388.40
2023-05-05T08:23:36.759Z,95381.20
2023-05-05T08:26:06.356Z,95384.40
2023-05-05T08:28:35.687Z,95376.60
2023-05-05T08:31:05.687Z,95378.20
2023-05-05T08:33:33.011Z,95378.40
2023-05-05T08:35:59.803Z,95377.60
2023-05-05T08:38:26.736Z,95375.40
2023-05-05T08:40:53.446Z,95373.20
2023-05-05T08:43:24.006Z,95371.60
2023-05-05T08:45:51.743Z,95377.80
2023-05-05T08:48:21.034Z,95376.00
2023-05-05T08:50:57.308Z,95379.60
2023-05-05T08:53:51.592Z,95379.00
2023-05-05T08:56:22.233Z,95383.20
2023-05-05T08:58:51.114Z,95384.40
2023-05-05T09:01:18.631Z,95388.20
2023-05-05T09:03:46.203Z,95393.80
2023-05-05T09:06:13.332Z,95394.60
2023-05-05T09:08:40.090Z,95390.60
2023-05-05T09:11:06.947Z,95396.60
2023-05-05T09:13:33.620Z,95393.20
2023-05-05T09:16:00.382Z,95393.40
2023-05-05T09:18:27.413Z,95398.00
2023-05-05T09:20:54.089Z,95397.60
2023-05-05T09:23:21.468Z,95394.20
2023-05-05T09:26:04.452Z,95389.60
2023-05-05T09:28:31.336Z,95387.80
2023-05-05T09:31:14.110Z,95392.00
2023-05-05T09:33:42.017Z,95391.40
2023-05-05T09:36:08.828Z,95390.20
2023-05-05T09:38:36.668Z,95387.00
2023-05-05T09:41:05.562Z,95391.40
2023-05-05T09:43:51.885Z,95393.00
2023-05-05T09:46:18.934Z,95382.60
2023-05-05T09:48:45.554Z,95384.20
2023-05-05T09:51:12.144Z,95382.60
2023-05-05T09:53:41.571Z,95379.80
2023-05-05T09:56:08.823Z,95382.00
2023-05-05T09:58:35.565Z,95382.00
2023-05-05T10:01:02.364Z,95383.40
2023-05-05T10:03:28.947Z,95380.40
2023-05-05T10:06:01.404Z,95379.00
2023-05-05T10:08:31.586Z,95378.60
2023-05-05T10:11:05.803Z,95377.20
2023-05-05T10:13:37.975Z,95375.20
2023-05-05T10:16:09.471Z,95374.20
2023-05-05T10:18:39.863Z,95375.60
2023-05-05T10:21:07.735Z,95372.60
2023-05-05T10:23:50.365Z,95370.80
2023-05-05T10:26:19.467Z,95369.20
2023-05-05T10:28:52.096Z,95367.20
2023-05-05T10:31:47.911Z,95364.40
2023-05-05T10:34:37.076Z,95366.40
2023-05-05T10:37:04.888Z,95366.00
2023-05-05T10:39:31.605Z,95363.60
2023-05-05T10:42:03.488Z,95355.80
2023-05-05T10:44:34.151Z,95352.60
2023-05-05T10:47:02.063Z,95347.40
2023-05-05T10:49:41.504Z,95345.60
2023-05-05T10:52:26.424Z,95343.40
2023-05-05T10:55:37.288Z,95337.00
2023-05-05T10:58:03.976Z,95338.00
2023-05-05T11:00:50.294Z,95339.60
2023-05-05T11:03:16.963Z,95338.60
2023-05-05T11:06:07.738Z,95332.00
2023-05-05T11:08:36.823Z,95336.80
2023-05-05T11:11:05.391Z,95328.20
2023-05-05T11:13:32.639Z,95327.20
2023-05-05T11:16:02.049Z,95324.00
2023-05-05T11:18:36.555Z,95318.80
2023-05-05T11:21:17.437Z,95316.60
2023-05-05T11:23:52.108Z,95313.20
2023-05-05T11:26:51.778Z,95310.60
2023-05-05T11:29:18.428Z,95306.40
2023-05-05T11:31:47.783Z,95301.00
2023-05-05T11:34:29.870Z,95298.40
2023-05-05T11:37:01.641Z,95294.60
2023-05-05T11:40:12.327Z,95291.20
2023-05-05T11:42:39.118Z,95291.40
2023-05-05T11:45:22.119Z,95289.00
2023-05-05T11:47:48.981Z,95288.40
2023-05-05T11:50:18.490Z,95286.00
2023-05-05T11:52:45.447Z,95287.80
2023-05-05T11:55:12.302Z,95287.60
2023-05-05T11:57:39.872Z,95288.40
2023-05-05T12:00:09.155Z,95282.60
2023-05-05T12:02:36.677Z,95283.80
2023-05-05T12:05:04.210Z,95280.20
2023-05-05T12:07:33.226Z,95273.80
2023-05-05T12:10:01.064Z,95272.20
2023-05-05T12:12:36.926Z,95278.60
2023-05-05T12:15:05.057Z,95267.80
2023-05-05T12:17:44.805Z,95269.00
2023-05-05T12:20:13.043Z,95275.00
2023-05-05T12:22:40.575Z,95270.60
2023-05-05T12:25:09.316Z,95269.20
2023-05-05T12:27:36.249Z,95266.40
2023-05-05T12:30:18.306Z,95265.80
2023-05-05T12:32:46.389Z,95266.40
2023-05-05T12:35:13.876Z,95255.00
2023-05-05T12:37:41.671Z,95259.80
2023-05-05T12:40:48.953Z,95257.60
2023-05-05T12:43:35.828Z,95255.60
2023-05-05T12:46:12.347Z,95252.20
2023-05-05T12:48:45.014Z,95250.80
2023-05-05T12:51:23.275Z,95245.20
2023-05-05T12:54:11.309Z,95240.60
2023-05-05T12:56:40.733Z,95237.00
2023-05-05T12:59:30.699Z,95240.80
2023-05-05T13:02:02.399Z,95240.00
2023-05-05T13:04:29.428Z,95231.00
2023-05-05T13:07:14.425Z,95227.60
2023-05-05T13:09:41.532Z,95223.40
2023-05-05T13:12:11.626Z,95222.20
2023-05-05T13:14:39.483Z,95217.20
2023-05-05T13:17:06.647Z,95211.00
2023-05-05T13:19:35.546Z,95204.00
2023-05-05T13:22:02.332Z,95204.00
2023-05-05T13:24:38.588Z,95200.60
2023-05-05T13:27:13.782Z,95195.40
2023-05-05T13:29:41.650Z,95196.80
2023-05-05T13:32:08.400Z,95193.20
2023-05-05T13:34:34.983Z,95194.20
2023-05-05T13:37:01.573Z,95187.20
2023-05-05T13:39:28.186Z,95183.00
2023-05-05T13:41:54.757Z,95177.80
2023-05-05T13:44:22.113Z,95170.20
2023-05-05T13:46:48.906Z,95167.00
2023-05-05T13:49:15.534Z,95167.00
2023-05-05T13:51:42.200Z,95164.00
2023-05-05T13:54:09.758Z,95158.40
2023-05-05T13:56:36.544Z,95150.40
2023-05-05T13:59:03.212Z,95146.00
2023-05-05T14:01:32.973Z,95137.20
2023-05-05T14:04:00.907Z,95137.00
2023-05-05T14:06:28.817Z,95136.00
2023-05-05T14:08:55.346Z,95136.00
2023-05-05T14:11:22.942Z,95132.60
2023-05-05T14:13:49.668Z,95133.40
2023-05-05T14:16:16.819Z,95135.20
2023-05-05T14:18:43.519Z,95134.00
2023-05-05T14:21:10.661Z,95130.00
2023-05-05T14:23:37.358Z,95128.40
2023-05-05T14:26:04.035Z,95125.00
2023-05-05T14:28:30.708Z,95120.60
2023-05-05T14:30:57.433Z,95118.00
2023-05-05T14:33:24.003Z,95121.20
2023-05-05T14:35:50.655Z,95120.40
2023-05-05T14:38:17.340Z,95121.20
2023-05-05T14:40:44.000Z,95123.00
2023-05-05T14:43:10.616Z,95118.80
2023-05-05T14:45:37.424Z,95124.40
2023-05-05T14:48:04.291Z,95121.40
2023-05-05T14:50:30.855Z,95115.80
2023-05-05T14:52:57.463Z,95114.60
2023-05-05T14:55:25.040Z,95113.80
2023-05-05T14:57:52.002Z,95114.40
2023-05-05T15:00:18.919Z,95106.40
2023-05-05T15:02:47.967Z,95108.40
2023-05-05T15:05:15.036Z,95101.20
2023-05-05T15:07:41.661Z,95103.40
2023-05-05T15:10:08.905Z,95100.00
2023-05-05T15:12:35.874Z,95101.20
2023-05-05T15:15:02.708Z,95098.60
2023-05-05T15:17:31.267Z,95099.60
2023-05-05T15:19:57.940Z,95102.00
2023-05-05T15:22:24.714Z,95101.80
2023-05-05T15:24:51.285Z,95110.80
2023-05-05T15:27:18.646Z,95109.40
2023-05-05T15:29:45.287Z,95112.20
2023-05-05T15:32:12.165Z,95109.40
2023-05-05T15:34:39.469Z,95106.80
2023-05-05T15:37:06.096Z,95099.40
2023-05-05T15:39:32.682Z,95092.00
2023-05-05T15:42:03.579Z,95089.20
2023-05-05T15:44:30.764Z,95087.80
2023-05-05T15:46:57.450Z,95090.20
2023-05-05T15:49:24.151Z,95084.60
2023-05-05T15:51:51.004Z,95090.40
2023-05-05T15:54:17.727Z,95084.40
2023-05-05T15:56:44.376Z,95080.60
2023-05-05T15:59:11.020Z,95083.00
2023-05-05T16:01:37.783Z,95083.00
2023-05-05T16:04:05.164Z,95081.60
2023-05-05T16:06:32.097Z,95086.20
2023-05-05T16:08:58.739Z,95080.20
2023-05-05T16:11:26.489Z,95084.40
2023-05-05T16:13:53.636Z,95084.40
2023-05-05T16:16:20.386Z,95085.00
2023-05-05T16:18:47.125Z,95084.00
2023-05-05T16:21:13.868Z,95084.20
2023-05-05T16:23:40.623Z,95076.40
2023-05-05T16:26:07.250Z,95075.80
2023-05-05T16:28:34.432Z,95066.60
2023-05-05T16:31:02.334Z,95065.00
2023-05-05T16:33:29.337Z,95065.20
2023-05-05T16:35:56.258Z,95061.20
2023-05-05T16:38:23.073Z,95060.80
2023-05-05T16:40:49.680Z,95057.80
2023-05-05T16:43:16.546Z,95058.20
2023-05-05T16:45:43.516Z,95056.60
2023-05-05T16:48:10.419Z,95061.60
2023-05-05T16:50:36.983Z,95066.40
2023-05-05T16:53:03.600Z,95069.60
2023-05-05T16:55:30.301Z,95070.00
2023-05-05T16:57:56.896Z,95071.60
2023-05-05T17:00:23.525Z,95070.80
2023-05-05T17:02:50.172Z,95069.40
2023-05-05T17:05:17.760Z,95061.20
2023-05-05T17:07:44.658Z,95056.80
2023-05-05T17:10:11.386Z,95049.00
2023-05-05T17:12:38.050Z,95047.40
2023-05-05T17:15:05.604Z,95043.00
2023-05-05T17:17:32.245Z,95039.20
2023-05-05T17:19:59.088Z,95032.40
2023-05-05T17:22:25.768Z,95038.00
2023-05-05T17:24:52.472Z,95037.40
2023-05-05T17:27:19.019Z,95042.00
2023-05-05T17:29:45.697Z,95039.00
2023-05-05T17:32:12.440Z,95034.20
2023-05-05T17:34:39.212Z,95034.20
2023-05-05T17:37:05.814Z,95029.20
2023-05-05T17:39:32.806Z,95027.60
2023-05-05T17:41:59.384Z,95024.80
2023-05-05T17:44:25.965Z,95017.60
2023-05-05T17:46:52.851Z,95009.20
2023-05-05T17:49:21.545Z,95008.80
2023-05-05T17:51:48.203Z,95003.60
2023-05-05T17:54:14.771Z,95001.00
2023-05-05T17:56:41.342Z,94998.80
2023-05-05T17:59:08.893Z,94994.20
2023-05-05T18:01:35.454Z,94993.60
2023-05-05T18:04:02.275Z,94993.80
2023-05-05T18:06:29.591Z,94990.20
2023-05-05T18:08:56.504Z,94981.00
2023-05-05T18:11:27.477Z,94977.80
2023-05-05T18:13:56.040Z,94982.80
2023-05-05T18:16:22.750Z,94996.80
2023-05-05T18:18:49.494Z,95018.20
2023-05-05T18:21:16.127Z,95027.40
2023-05-05T18:23:42.752Z,95022.60
2023-05-05T18:26:09.385Z,95028.60
2023-05-05T18:28:37.085Z,95036.60
2023-05-05T18:31:03.734Z,95032.00
2023-05-05T18:33:30.388Z,95053.20
2023-05-05T18:35:57.729Z,95071.00
2023-05-05T18:38:24.403Z,95076.00
2023-05-05T18:40:51.462Z,95075.00
2023-05-05T18:43:18.173Z,95068.40
2023-05-05T18:45:45.342Z,95067.20
2023-05-05T18:48:12.119Z,95068.20
2023-05-05T18:50:38.852Z,95095.20
2023-05-05T18:53:05.611Z,95160.20
2023-05-05T18:55:32.212Z,95252.60
2023-05-05T18:57:58.881Z,95347.00
2023-05-05T19:00:25.529Z,95383.80
2023-05-05T19:02:52.223Z,95407.00
2023-05-05T19:05:19.080Z,95420.00
2023-05-05T19:07:46.043Z,95379.60
2023-05-05T19:10:12.989Z,95366.20
2023-05-05T19:12:39.705Z,95372.40
2023-05-05T19:15:07.313Z,95368.40
2023-05-05T19:17:34.221Z,95370.00
2023-05-05T19:20:00.830Z,95371.80
2023-05-05T19:22:27.398Z,95389.00
2023-05-05T19:24:53.989Z,95404.80
2023-05-05T19:27:21.531Z,95421.20
2023-05-05T19:29:52.151Z,95429.60
2023-05-05T19:35:31.334Z,95428.40
2023-05-05T19:37:57.946Z,95422.80
2023-05-05T19:40:24.597Z,95414.20
2023-05-05T19:42:51.311Z,95402.00
2023-05-05T19:45:19.329Z,95397.00
2023-05-05T19:47:46.233Z,95398.60
2023-05-05T19:50:15.221Z,95397.20
2023-05-05T19:52:42.018Z,95402.00
2023-05-05T19:55:13.234Z,95405.40
2023-05-05T19:57:40.637Z,95406.00
2023-05-05T20:00:10.478Z,95400.00
2023-05-05T20:02:37.624Z,95396.40
2023-05-05T20:05:04.951Z,95390.80
2023-05-05T20:07:31.586Z,95387.20
2023-05-05T20:09:58.653Z,95391.00
2023-05-05T20:12:25.592Z,95390.80
2023-05-05T20:14:52.211Z,95388.40
2023-05-05T20:17:20.301Z,95392.20
2023-05-05T20:19:47.850Z,95398.80
2023-05-05T20:22:14.467Z,95395.20
2023-05-05T20:24:41.055Z,95393.40
2023-05-05T20:27:09.275Z,95391.00
2023-05-05T20:29:36.266Z,95392.60
2023-05-05T20:32:02.966Z,95391.20
2023-05-05T20:34:29.696Z,95392.80
2023-05-05T20:36:57.922Z,95396.40
2023-05-05T20:39:25.081Z,95400.20
2023-05-05T20:41:53.348Z,95398.40
2023-05-05T20:44:19.993Z,95398.00
2023-05-05T20:46:46.574Z,95400.40
2023-05-05T20:49:13.277Z,95399.00
2023-05-05T20:51:39.863Z,95397.00
2023-05-05T20:54:06.534Z,95392.00
2023-05-05T20:56:33.115Z,95387.00
2023-05-05T20:58:59.755Z,95389.00
2023-05-05T21:01:26.550Z,95388.20
2023-05-05T21:03:53.245Z,95385.60
2023-05-05T21:06:19.820Z,95386.20
2023-05-05T21:08:47.137Z,95380.80
2023-05-05T21:11:13.818Z,95380.00
2023-05-05T21:13:40.534Z,95377.40
2023-05-05T21:16:07.343Z,95375.00
2023-05-05T21:18:34.093Z,95372.40
2023-05-05T21:21:01.263Z,95367.20
2023-05-05T21:23:27.837Z,95368.80
2023-05-05T21:25:54.426Z,95369.80
2023-05-05T21:28:21.181Z,95368.40
2023-05-05T21:31:10.248Z,95373.40
2023-05-05T21:33:37.674Z,95369.40
2023-05-05T21:36:05.301Z,95366.40
2023-05-05T21:38:31.985Z,95367.40
2023-05-05T21:40:58.754Z,95362.40
2023-05-05T21:43:28.528Z,95359.20
2023-05-05T21:46:03.108Z,95354.60
2023-05-05T21:48:31.167Z,95351.40
2023-05-05T21:50:57.889Z,95357.00
2023-05-05T21:53:24.820Z,95353.80
2023-05-05T21:55:51.598Z,95351.40
2023-05-05T21:58:18.295Z,95353.20
2023-05-05T22:00:45.047Z,95350.60
2023-05-05T22:03:12.325Z,95348.20
2023-05-05T22:06:03.920Z,95347.20
2023-05-05T22:08:30.552Z,95350.20
2023-05-05T22:10:57.142Z,95349.60
2023-05-05T22:13:23.851Z,95351.20
2023-05-05T22:15:50.640Z,95350.60
2023-05-05T22:18:17.447Z,95347.60
2023-05-05T22:20:44.186Z,95349.20
2023-05-05T22:23:11.393Z,95350.80
2023-05-05T22:25:38.019Z,95348.20
2023-05-05T22:28:05.196Z,95355.60
2023-05-05T22:30:31.933Z,95356.20
2023-05-05T22:32:58.838Z,95354.80
2023-05-05T22:35:25.562Z,95354.00
2023-05-05T22:37:52.261Z,95349.20
2023-05-05T22:40:18.958Z,95352.20
2023-05-05T22:42:45.576Z,95350.60
2023-05-05T22:45:13.625Z,95347.20
2023-05-05T22:47:40.653Z,95342.80
2023-05-05T22:50:08.905Z,95338.80
2023-05-05T22:52:36.296Z,95340.60
2023-05-05T22:55:03.152Z,95342.80
2023-05-05T22:57:29.803Z,95346.60
2023-05-05T22:59:56.528Z,95344.00
2023-05-05T23:02:23.212Z,95343.20
2023-05-05T23:04:51.210Z,95345.40
2023-05-05T23:07:18.099Z,95347.60
2023-05-05T23:09:44.724Z,95347.40
2023-05-05T23:12:11.368Z,95345.20
2023-05-05T23:14:37.914Z,95343.80
2023-05-05T23:17:04.601Z,95343.00
2023-05-05T23:19:32.654Z,95341.80
2023-05-05T23:21:59.856Z,95337.40
2023-05-05T23:24:30.018Z,95337.60
2023-05-05T23:27:04.085Z,95337.40
2023-05-05T23:29:30.968Z,95333.20
2023-05-05T23:31:58.265Z,95329.80
2023-05-05T23:34:26.055Z,95328.40
2023-05-05T23:36:52.792Z,95329.80
2023-05-05T23:39:19.388Z,95327.40
2023-05-05T23:41:46.113Z,95329.40
2023-05-05T23:44:13.207Z,95330.20
2023-05-05T23:46:40.205Z,95333.60
2023-05-05T23:49:06.908Z,95332.60
2023-05-05T23:51:33.690Z,95327.20
2023-05-05T23:54:00.297Z,95328.80
2023-05-05T23:56:26.853Z,95327.60
2023-05-05T23:58:53.710Z,95328.40
